Time;durP1;ratioP1;P1;durP2;ratioP2;P2;SDS_P1;SDS_P2;PMS_P1;PMS_P2;Temp;Humidity;BMP_temperature;BMP_pressure;BME280_temperature;BME280_humidity;BME280_pressure;Samples;Min_cycle;Max_cycle;Signal;HPM_P1;HPM_P2
2024/04/02 00:00:54;;;;;;;0.30;0.10;;;9.40;1.00;;;;;;5140649;27;20859;-61
2024/04/02 00:03:20;;;;;;;0.30;0.10;;;9.40;1.00;;;;;;5140073;27;20732;-61
2024/04/02 00:05:48;;;;;;;0.20;0.10;;;9.30;1.00;;;;;;5140093;27;20512;-61
2024/04/02 00:08:14;;;;;;;0.30;0.10;;;9.50;1.00;;;;;;5139793;27;20548;-60
2024/04/02 00:10:41;;;;;;;0.20;0.10;;;9.40;1.00;;;;;;5138807;27;20492;-60
2024/04/02 00:13:07;;;;;;;0.80;0.10;;;9.40;1.00;;;;;;5139490;27;20494;-61
2024/04/02 00:15:34;;;;;;;0.30;0.10;;;9.40;1.00;;;;;;5139229;27;20868;-61
2024/04/02 00:18:01;;;;;;;0.30;0.10;;;9.40;1.00;;;;;;5139409;27;20539;-61
2024/04/02 00:20:28;;;;;;;0.30;0.10;;;9.30;1.00;;;;;;5139562;27;20487;-62
2024/04/02 00:22:55;;;;;;;0.20;0.10;;;9.30;1.00;;;;;;5138837;27;20444;-60
2024/04/02 00:25:22;;;;;;;0.33;0.10;;;9.30;1.00;;;;;;5138044;27;20447;-60
2024/04/02 00:27:48;;;;;;;0.20;0.10;;;9.40;1.00;;;;;;5118147;28;20437;-60
2024/04/02 00:30:27;;;;;;;0.30;0.20;;;9.50;1.00;;;;;;5119450;27;20451;-61
2024/04/02 00:32:54;;;;;;;0.20;0.10;;;9.60;1.00;;;;;;5129260;27;20476;-61
2024/04/02 00:35:21;;;;;;;0.30;0.10;;;9.60;1.00;;;;;;5119223;28;20483;-60
2024/04/02 00:37:47;;;;;;;0.40;0.10;;;9.60;1.00;;;;;;5119327;28;20484;-62
2024/04/02 00:40:16;;;;;;;0.20;0.10;;;9.50;1.00;;;;;;5122961;27;20436;-61
2024/04/02 00:42:43;;;;;;;0.63;0.20;;;9.60;1.00;;;;;;5137329;27;20440;-61
2024/04/02 00:45:10;;;;;;;0.30;0.10;;;9.60;1.00;;;;;;5137391;27;20825;-60
2024/04/02 00:47:36;;;;;;;0.43;0.10;;;9.50;1.00;;;;;;5129408;27;20575;-60
2024/04/02 00:50:05;;;;;;;0.20;0.10;;;9.60;1.00;;;;;;5139182;27;20452;-60
2024/04/02 00:52:31;;;;;;;0.30;0.10;;;9.50;1.00;;;;;;5122098;27;20591;-60
2024/04/02 00:54:59;;;;;;;0.30;0.10;;;9.50;1.00;;;;;;5118292;28;20523;-61
2024/04/02 00:57:27;;;;;;;0.30;0.10;;;9.50;1.00;;;;;;5120512;27;20571;-61
2024/04/02 00:59:55;;;;;;;0.50;0.10;;;9.50;1.00;;;;;;5138868;27;20455;-61
2024/04/02 01:02:21;;;;;;;0.30;0.10;;;9.50;1.00;;;;;;5138966;27;20470;-62
2024/04/02 01:04:48;;;;;;;0.27;0.10;;;9.50;1.00;;;;;;5120862;27;20448;-61
2024/04/02 01:07:15;;;;;;;0.30;0.10;;;9.50;1.00;;;;;;5117986;28;20472;-61
2024/04/02 01:09:44;;;;;;;0.20;0.10;;;9.50;1.00;;;;;;5127819;27;20486;-62
2024/04/02 01:12:10;;;;;;;0.27;0.10;;;9.40;1.00;;;;;;5137533;28;20447;-62
2024/04/02 01:14:41;;;;;;;0.30;0.10;;;9.40;1.00;;;;;;5138177;28;20448;-61
2024/04/02 01:17:07;;;;;;;0.20;0.10;;;9.30;1.00;;;;;;5137192;28;20857;-61
2024/04/02 01:19:34;;;;;;;0.30;0.10;;;9.30;1.00;;;;;;5137567;28;20458;-61
2024/04/02 01:22:01;;;;;;;0.30;0.10;;;9.30;1.00;;;;;;5123349;28;21029;-60
2024/04/02 01:24:28;;;;;;;0.30;0.10;;;9.30;1.00;;;;;;5117147;28;20448;-61
2024/04/02 01:26:56;;;;;;;0.30;0.10;;;9.30;1.00;;;;;;5124037;28;20494;-62
2024/04/02 01:29:23;;;;;;;0.30;0.10;;;9.20;1.00;;;;;;5137034;28;20520;-60
2024/04/02 01:31:51;;;;;;;0.30;0.10;;;9.30;1.00;;;;;;5137656;28;20435;-61
2024/04/02 01:34:18;;;;;;;0.20;0.10;;;9.30;1.00;;;;;;5136971;28;20479;-60
2024/04/02 01:36:44;;;;;;;0.30;0.10;;;9.20;1.00;;;;;;5136530;28;20867;-61
2024/04/02 01:39:11;;;;;;;0.30;0.10;;;9.20;1.00;;;;;;5137138;28;20505;-61
2024/04/02 01:41:37;;;;;;;0.67;0.20;;;9.20;1.00;;;;;;5136974;28;20447;-61
2024/04/02 01:44:06;;;;;;;0.30;0.10;;;9.10;1.00;;;;;;5136964;28;20439;-61
2024/04/02 01:46:32;;;;;;;0.30;0.10;;;9.10;1.00;;;;;;5136981;28;20452;-61
2024/04/02 01:48:59;;;;;;;0.20;0.10;;;9.10;1.00;;;;;;5137319;28;20449;-61
2024/04/02 01:51:27;;;;;;;0.30;0.10;;;9.00;1.00;;;;;;5126397;28;20441;-61
2024/04/02 01:53:54;;;;;;;0.30;0.10;;;8.90;1.00;;;;;;5134923;28;20476;-61
2024/04/02 01:56:20;;;;;;;0.30;0.10;;;8.90;1.00;;;;;;5136392;28;20869;-61
2024/04/02 01:58:47;;;;;;;0.30;0.10;;;8.80;1.00;;;;;;5136663;27;20447;-61
2024/04/02 02:01:15;;;;;;;0.40;0.10;;;8.80;1.00;;;;;;5137151;28;20443;-61
2024/04/02 02:03:42;;;;;;;0.30;0.10;;;8.80;1.00;;;;;;5137126;27;20428;-61
2024/04/02 02:06:08;;;;;;;0.30;0.10;;;8.80;1.00;;;;;;5136855;27;20516;-61
2024/04/02 02:08:35;;;;;;;0.30;0.10;;;8.90;1.00;;;;;;5137473;27;20735;-61
2024/04/02 02:11:03;;;;;;;0.30;0.10;;;8.90;1.00;;;;;;5095955;27;1185749;-62
2024/04/02 02:13:30;;;;;;;0.43;0.20;;;9.00;1.00;;;;;;5137467;27;20210;-61
2024/04/02 02:15:58;;;;;;;0.30;0.10;;;8.90;1.00;;;;;;5137057;27;20462;-62
2024/04/02 02:18:27;;;;;;;0.93;0.10;;;8.90;1.00;;;;;;5137834;27;20443;-62
2024/04/02 02:20:53;;;;;;;0.30;0.10;;;8.90;1.00;;;;;;5137248;27;20757;-62
2024/04/02 02:23:20;;;;;;;0.50;0.10;;;8.90;1.00;;;;;;5137468;27;20733;-61
2024/04/02 02:25:46;;;;;;;0.37;0.10;;;8.90;1.00;;;;;;5136479;27;20447;-60
2024/04/02 02:28:13;;;;;;;0.30;0.10;;;8.80;1.00;;;;;;5137025;27;20896;-61
2024/04/02 02:30:39;;;;;;;0.30;0.10;;;8.80;1.00;;;;;;5136590;27;20440;-61
2024/04/02 02:33:06;;;;;;;0.30;0.10;;;8.80;1.00;;;;;;5135771;27;20578;-61
2024/04/02 02:35:34;;;;;;;0.40;0.20;;;8.70;1.00;;;;;;5137549;27;20459;-60
2024/04/02 02:38:01;;;;;;;0.90;0.10;;;8.60;1.00;;;;;;5137773;27;20805;-62
2024/04/02 02:40:29;;;;;;;0.30;0.10;;;8.60;1.00;;;;;;5136010;28;20443;-61
2024/04/02 02:42:56;;;;;;;0.23;0.10;;;8.60;1.00;;;;;;5137612;28;20431;-61
2024/04/02 02:45:22;;;;;;;0.30;0.10;;;8.70;1.00;;;;;;5137463;27;20443;-61
2024/04/02 02:47:49;;;;;;;0.30;0.10;;;8.70;1.00;;;;;;5138282;27;20461;-61
2024/04/02 02:50:16;;;;;;;0.30;0.10;;;8.70;1.00;;;;;;5135734;27;20451;-61
2024/04/02 02:52:44;;;;;;;0.20;0.10;;;8.70;1.00;;;;;;5134986;28;20486;-61
2024/04/02 02:55:11;;;;;;;0.40;0.20;;;8.80;1.00;;;;;;5136100;28;20475;-62
2024/04/02 02:57:38;;;;;;;0.30;0.10;;;8.90;1.00;;;;;;5136315;28;20440;-62
2024/04/02 03:00:05;;;;;;;0.30;0.10;;;8.80;1.00;;;;;;5135912;28;20452;-61
2024/04/02 03:02:34;;;;;;;0.30;0.10;;;8.70;1.00;;;;;;5137219;28;20448;-62
2024/04/02 03:05:00;;;;;;;0.40;0.10;;;8.80;1.00;;;;;;5136415;28;20458;-62
2024/04/02 03:07:27;;;;;;;0.30;0.10;;;8.80;1.00;;;;;;5136978;28;20456;-61
2024/04/02 03:09:55;;;;;;;0.30;0.10;;;8.80;1.00;;;;;;5136923;28;20476;-60
2024/04/02 03:12:22;;;;;;;0.30;0.10;;;8.80;1.00;;;;;;5137366;28;20857;-60
2024/04/02 03:14:48;;;;;;;0.30;0.10;;;8.80;1.00;;;;;;5136832;28;20520;-59
2024/04/02 03:17:15;;;;;;;0.20;0.10;;;8.80;1.00;;;;;;5119321;28;20470;-61
2024/04/02 03:19:41;;;;;;;0.30;0.10;;;8.80;1.00;;;;;;5121412;27;20453;-60
2024/04/02 03:22:08;;;;;;;0.30;0.10;;;8.90;1.00;;;;;;5139884;27;20620;-60
2024/04/02 03:24:34;;;;;;;0.30;0.10;;;8.90;1.00;;;;;;5140280;27;20431;-59
2024/04/02 03:27:05;;;;;;;0.30;0.10;;;8.90;1.00;;;;;;5140664;27;20450;-59
2024/04/02 03:29:31;;;;;;;0.30;0.10;;;8.90;1.00;;;;;;5119593;28;20548;-60
2024/04/02 03:31:58;;;;;;;0.40;0.10;;;8.90;1.00;;;;;;5119711;28;20480;-60
2024/04/02 03:34:26;;;;;;;0.20;0.10;;;8.90;1.00;;;;;;5118158;28;20484;-61
2024/04/02 03:36:53;;;;;;;0.30;0.10;;;8.90;99.90;;;;;;5119216;27;20444;-60
2024/04/02 03:39:20;;;;;;;0.30;0.10;;;9.00;1.00;;;;;;5118541;28;20499;-60
2024/04/02 03:41:48;;;;;;;0.30;0.10;;;9.00;1.00;;;;;;5118937;28;20452;-59
2024/04/02 03:44:16;;;;;;;0.30;0.10;;;9.00;1.00;;;;;;5119175;28;20448;-60
2024/04/02 03:46:43;;;;;;;0.30;0.10;;;8.80;99.90;;;;;;5118024;28;20931;-60
2024/04/02 03:49:10;;;;;;;0.20;0.10;;;8.80;1.00;;;;;;5117065;28;20441;-60
2024/04/02 03:51:37;;;;;;;0.20;0.10;;;8.90;1.00;;;;;;5128221;27;20467;-60
2024/04/02 03:54:03;;;;;;;0.40;0.20;;;8.90;1.00;;;;;;5139595;27;20663;-60
2024/04/02 03:56:31;;;;;;;0.30;0.10;;;9.00;1.00;;;;;;5131853;27;20451;-60
2024/04/02 03:58:57;;;;;;;0.20;0.00;;;8.80;1.00;;;;;;5119023;28;20453;-61
2024/04/02 04:01:25;;;;;;;0.40;0.20;;;8.80;1.00;;;;;;5118894;28;20914;-60
2024/04/02 04:03:52;;;;;;;0.40;0.10;;;9.00;1.00;;;;;;5119360;28;21025;-61
2024/04/02 04:06:19;;;;;;;0.30;0.10;;;9.00;1.00;;;;;;5132397;27;20523;-60
2024/04/02 04:08:45;;;;;;;0.30;0.10;;;9.00;1.00;;;;;;5139269;27;20447;-59
2024/04/02 04:11:12;;;;;;;0.90;0.20;;;8.80;1.00;;;;;;5139897;27;20504;-60
2024/04/02 04:13:38;;;;;;;0.20;0.10;;;8.80;1.00;;;;;;5138976;27;20670;-62
2024/04/02 04:16:05;;;;;;;0.20;0.10;;;8.90;1.00;;;;;;5137269;27;20435;-60
2024/04/02 04:18:33;;;;;;;0.30;0.10;;;8.80;1.00;;;;;;5138567;27;20828;-60
2024/04/02 04:21:01;;;;;;;0.50;0.10;;;8.90;1.00;;;;;;5140335;27;20887;-61
2024/04/02 04:23:28;;;;;;;0.20;0.10;;;8.80;1.00;;;;;;5139978;27;20504;-60
2024/04/02 04:25:56;;;;;;;0.30;0.10;;;8.80;1.00;;;;;;5140203;27;20451;-60
2024/04/02 04:28:22;;;;;;;0.30;0.10;;;8.90;1.00;;;;;;5134882;27;20441;-61
2024/04/02 04:30:53;;;;;;;0.30;0.10;;;9.10;1.00;;;;;;5118009;28;20441;-61
2024/04/02 04:33:19;;;;;;;0.30;0.10;;;9.20;99.90;;;;;;5124740;27;20507;-60
2024/04/02 04:35:48;;;;;;;0.60;0.10;;;9.20;99.90;;;;;;5137864;27;20562;-60
2024/04/02 04:38:14;;;;;;;0.40;0.20;;;9.00;99.90;;;;;;5137890;27;20462;-61
2024/04/02 04:40:42;;;;;;;0.20;0.10;;;9.00;1.00;;;;;;5137831;27;20451;-61
2024/04/02 04:43:08;;;;;;;0.30;0.10;;;9.00;1.00;;;;;;5137860;27;20858;-60
2024/04/02 04:45:35;;;;;;;0.40;0.10;;;9.00;99.90;;;;;;5137528;27;20798;-60
2024/04/02 04:48:05;;;;;;;0.30;0.10;;;9.00;99.90;;;;;;5137951;27;20546;-60
2024/04/02 04:50:32;;;;;;;0.30;0.10;;;9.10;99.90;;;;;;5135865;27;20448;-61
2024/04/02 04:53:00;;;;;;;0.30;0.10;;;9.10;99.90;;;;;;5138398;27;20488;-61
2024/04/02 04:55:29;;;;;;;0.20;0.10;;;9.00;99.90;;;;;;5120675;27;20459;-62
2024/04/02 04:57:55;;;;;;;0.67;0.10;;;8.90;99.90;;;;;;5118649;27;20437;-61
2024/04/02 05:00:22;;;;;;;0.37;0.10;;;8.90;1.00;;;;;;5116680;28;20958;-61
2024/04/02 05:02:48;;;;;;;0.30;0.10;;;8.90;1.00;;;;;;5117292;28;20539;-62
2024/04/02 05:05:15;;;;;;;0.30;0.20;;;8.90;1.00;;;;;;5117444;28;20555;-60
2024/04/02 05:07:54;;;;;;;0.30;0.10;;;8.80;1.00;;;;;;5117678;27;20453;-60
2024/04/02 05:10:23;;;;;;;0.40;0.10;;;8.90;1.00;;;;;;5129835;27;20479;-60
2024/04/02 05:12:49;;;;;;;0.43;0.10;;;8.90;1.00;;;;;;5136436;27;20447;-59
2024/04/02 05:15:16;;;;;;;0.30;0.10;;;8.80;99.90;;;;;;5136314;27;20464;-60
2024/04/02 05:17:42;;;;;;;0.30;0.10;;;8.80;99.90;;;;;;5136415;27;20455;-60
2024/04/02 05:20:09;;;;;;;0.20;0.10;;;8.90;1.00;;;;;;5135898;27;20874;-59
2024/04/02 05:22:36;;;;;;;0.20;0.10;;;8.80;1.00;;;;;;5136594;27;20448;-60
2024/04/02 05:25:03;;;;;;;0.43;0.20;;;8.80;1.00;;;;;;5137732;27;20447;-59
2024/04/02 05:27:31;;;;;;;0.30;0.10;;;8.80;1.00;;;;;;5135438;27;20436;-59
2024/04/02 05:29:58;;;;;;;0.20;0.10;;;9.00;1.00;;;;;;5122612;27;20452;-60
2024/04/02 05:32:24;;;;;;;0.40;0.10;;;9.10;1.00;;;;;;5130663;27;20547;-59
2024/04/02 05:34:51;;;;;;;0.43;0.17;;;8.90;1.00;;;;;;5135331;27;20562;-60
2024/04/02 05:37:17;;;;;;;0.30;0.10;;;9.00;1.00;;;;;;5135433;27;20440;-59
2024/04/02 05:39:48;;;;;;;0.30;0.10;;;9.00;1.00;;;;;;5135515;27;20690;-59
2024/04/02 05:42:15;;;;;;;0.33;0.10;;;9.10;99.90;;;;;;5134688;27;20471;-60
2024/04/02 05:44:43;;;;;;;0.30;0.10;;;9.10;99.90;;;;;;5136585;27;20443;-59
2024/04/02 05:47:09;;;;;;;0.30;0.10;;;9.00;99.90;;;;;;5135179;27;20447;-60
2024/04/02 05:49:36;;;;;;;0.30;0.10;;;9.10;1.00;;;;;;5135594;27;20491;-60
2024/04/02 05:52:03;;;;;;;0.30;0.10;;;9.10;99.90;;;;;;5134593;27;21055;-60
2024/04/02 05:54:30;;;;;;;0.30;0.10;;;9.10;99.90;;;;;;5134434;27;20507;-60
2024/04/02 05:56:56;;;;;;;0.30;0.10;;;9.00;99.90;;;;;;5135003;27;20448;-61
2024/04/02 05:59:23;;;;;;;0.30;0.10;;;9.00;1.00;;;;;;5134600;27;20440;-60
2024/04/02 06:01:51;;;;;;;0.20;0.10;;;8.90;1.00;;;;;;5135056;27;20463;-59
2024/04/02 06:04:18;;;;;;;0.30;0.10;;;8.90;1.00;;;;;;5136003;27;20448;-60
2024/04/02 06:06:46;;;;;;;0.20;0.10;;;9.00;1.00;;;;;;5136913;27;20767;-60
2024/04/02 06:09:13;;;;;;;0.20;0.10;;;9.00;1.00;;;;;;5135709;27;20482;-60
2024/04/02 06:11:39;;;;;;;1.33;0.67;;;9.00;1.00;;;;;;5133728;27;20448;-63
2024/04/02 06:14:06;;;;;;;0.20;0.10;;;9.10;1.00;;;;;;5134267;27;20751;-60
2024/04/02 06:16:32;;;;;;;0.30;0.10;;;9.10;1.00;;;;;;5135563;27;20447;-60
2024/04/02 06:19:01;;;;;;;0.40;0.17;;;9.10;1.00;;;;;;5133289;27;20459;-61
2024/04/02 06:21:27;;;;;;;0.30;0.10;;;9.20;1.00;;;;;;5135304;27;20810;-61
2024/04/02 06:23:54;;;;;;;0.30;0.07;;;9.30;99.90;;;;;;5132416;27;20943;-61
2024/04/02 06:26:20;;;;;;;0.30;0.10;;;9.40;99.90;;;;;;5133874;27;20516;-61
2024/04/02 06:28:48;;;;;;;0.30;0.10;;;9.60;99.90;;;;;;5133201;27;20444;-60
2024/04/02 06:31:14;;;;;;;0.30;0.10;;;9.80;99.90;;;;;;5122203;27;20542;-61
2024/04/02 06:33:41;;;;;;;0.20;0.10;;;9.90;99.90;;;;;;5134381;27;20468;-61
2024/04/02 06:36:09;;;;;;;0.30;0.10;;;9.90;99.90;;;;;;5134298;27;20861;-65
2024/04/02 06:38:36;;;;;;;0.30;0.10;;;10.20;99.90;;;;;;5133138;27;20535;-68
2024/04/02 06:41:02;;;;;;;0.30;0.20;;;10.00;99.90;;;;;;5136377;28;20452;-65
2024/04/02 06:43:29;;;;;;;0.30;0.10;;;9.90;1.00;;;;;;5133991;28;20478;-65
2024/04/02 06:45:55;;;;;;;0.33;0.17;;;9.80;1.00;;;;;;5133050;28;20459;-65
2024/04/02 06:48:22;;;;;;;0.47;0.10;;;9.80;1.00;;;;;;5136331;28;20539;-65
2024/04/02 06:50:56;;;;;;;0.30;0.10;;;9.80;1.00;;;;;;5135396;27;20781;-65
2024/04/02 06:53:25;;;;;;;0.20;0.10;;;9.70;1.00;;;;;;5137231;27;20884;-65
2024/04/02 06:55:51;;;;;;;0.20;0.10;;;9.60;1.00;;;;;;5136308;27;20932;-65
2024/04/02 06:58:18;;;;;;;0.30;0.10;;;9.70;1.00;;;;;;5139155;27;20535;-65
2024/04/02 07:00:45;;;;;;;0.20;0.10;;;9.60;1.00;;;;;;5139417;27;20530;-63
2024/04/02 07:03:21;;;;;;;0.60;0.10;;;9.60;1.00;;;;;;5130063;27;20881;-64
2024/04/02 07:05:49;;;;;;;0.53;0.10;;;9.40;1.00;;;;;;5131754;27;20627;-64
2024/04/02 07:08:15;;;;;;;0.40;0.10;;;9.30;1.00;;;;;;5135840;27;20853;-64
2024/04/02 07:10:46;;;;;;;0.30;0.10;;;9.40;1.00;;;;;;5135757;27;20482;-64
2024/04/02 07:13:12;;;;;;;0.30;0.10;;;9.40;1.00;;;;;;5137236;27;20428;-64
2024/04/02 07:15:41;;;;;;;0.30;0.10;;;9.50;1.00;;;;;;5139303;27;20440;-65
2024/04/02 07:18:07;;;;;;;0.40;0.10;;;9.50;1.00;;;;;;5138277;27;20443;-59
2024/04/02 07:20:35;;;;;;;0.20;0.10;;;9.70;1.00;;;;;;5138185;27;20717;-59
2024/04/02 07:23:01;;;;;;;0.30;0.10;;;9.70;1.00;;;;;;5137799;27;20565;-59
2024/04/02 07:25:28;;;;;;;0.30;0.10;;;9.90;1.00;;;;;;5134812;27;20457;-58
2024/04/02 07:27:56;;;;;;;1.80;0.10;;;10.00;1.00;;;;;;5129152;27;20801;-59
2024/04/02 07:30:23;;;;;;;0.40;0.20;;;9.80;1.00;;;;;;5139481;27;20471;-59
2024/04/02 07:32:51;;;;;;;0.70;0.20;;;9.90;1.00;;;;;;5139371;27;20451;-59
2024/04/02 07:35:19;;;;;;;0.30;0.10;;;9.90;1.00;;;;;;5135724;27;20510;-59
2024/04/02 07:37:45;;;;;;;0.27;0.07;;;10.10;1.00;;;;;;5135579;27;20748;-59
2024/04/02 07:40:12;;;;;;;0.60;0.13;;;10.10;99.90;;;;;;5136428;27;20504;-59
2024/04/02 07:42:38;;;;;;;0.20;0.10;;;10.10;99.90;;;;;;5137218;27;20440;-60
2024/04/02 07:45:07;;;;;;;0.50;0.10;;;10.10;99.90;;;;;;5132210;27;20540;-59
2024/04/02 07:47:33;;;;;;;0.70;0.10;;;10.10;99.90;;;;;;5139051;27;20853;-59
2024/04/02 07:50:00;;;;;;;0.30;0.10;;;10.10;99.90;;;;;;5136962;27;20463;-59
2024/04/02 07:52:27;;;;;;;1.30;0.10;;;10.10;99.90;;;;;;5137941;27;20463;-59
2024/04/02 07:54:53;;;;;;;1.03;0.20;;;10.20;1.00;;;;;;5136216;27;20835;-60
2024/04/02 07:57:20;;;;;;;0.40;0.20;;;10.20;99.90;;;;;;5139330;27;20440;-59
2024/04/02 07:59:46;;;;;;;0.60;0.20;;;10.20;1.00;;;;;;5131072;27;20945;-65
2024/04/02 08:02:14;;;;;;;0.40;0.20;;;10.30;35.90;;;;;;5115899;28;20191;-65
2024/04/02 08:04:40;;;;;;;0.97;0.20;;;10.40;99.90;;;;;;5118884;28;20480;-65
2024/04/02 08:07:09;;;;;;;0.40;0.20;;;10.60;99.90;;;;;;5127964;27;20870;-66
2024/04/02 08:09:35;;;;;;;0.30;0.10;;;10.70;99.90;;;;;;5136223;27;20493;-66
2024/04/02 08:12:03;;;;;;;0.37;0.10;;;11.10;99.90;;;;;;5136617;27;20972;-66
2024/04/02 08:14:31;;;;;;;0.20;0.10;;;11.30;99.90;;;;;;5135886;27;20519;-65
2024/04/02 08:16:59;;;;;;;0.30;0.10;;;11.40;99.90;;;;;;5121927;27;20623;-65
2024/04/02 08:19:26;;;;;;;0.40;0.10;;;11.40;99.90;;;;;;5121690;27;20889;-65
2024/04/02 08:21:53;;;;;;;0.40;0.10;;;11.50;99.90;;;;;;5122730;27;20484;-64
2024/04/02 08:24:19;;;;;;;0.30;0.10;;;11.60;99.90;;;;;;5119189;27;20543;-62
2024/04/02 08:26:46;;;;;;;0.57;0.20;;;11.70;99.90;;;;;;5122529;27;20824;-63
2024/04/02 08:29:13;;;;;;;0.97;0.10;;;12.10;99.90;;;;;;5122225;27;20472;-62
2024/04/02 08:31:41;;;;;;;0.30;0.10;;;12.10;99.90;;;;;;5120490;27;20456;-63
2024/04/02 08:34:07;;;;;;;0.80;0.20;;;12.00;99.90;;;;;;5119971;27;20482;-62
2024/04/02 08:36:37;;;;;;;0.57;0.10;;;12.10;99.90;;;;;;5121553;27;20452;-62
2024/04/02 08:39:03;;;;;;;0.30;0.10;;;12.10;99.90;;;;;;5120349;27;20946;-62
2024/04/02 08:41:31;;;;;;;0.63;0.20;;;12.40;99.90;;;;;;5123528;27;20443;-62
2024/04/02 08:43:58;;;;;;;0.40;0.10;;;12.60;99.90;;;;;;5117085;27;20456;-61
2024/04/02 08:46:26;;;;;;;3.27;0.27;;;12.70;99.90;;;;;;5120598;27;20479;-62
2024/04/02 08:48:53;;;;;;;0.87;0.10;;;12.60;99.90;;;;;;5122632;27;20456;-63
2024/04/02 08:51:20;;;;;;;0.30;0.10;;;12.60;99.90;;;;;;5122707;27;21251;-61
2024/04/02 08:53:48;;;;;;;3.70;0.13;;;12.40;99.90;;;;;;5123506;27;20648;-62
2024/04/02 08:56:16;;;;;;;1.83;0.20;;;12.40;99.90;;;;;;5127181;27;20456;-59
2024/04/02 08:58:45;;;;;;;0.40;0.20;;;12.50;99.90;;;;;;5118256;27;20914;-59
2024/04/02 09:01:13;;;;;;;0.20;0.10;;;12.40;99.90;;;;;;5120259;27;20444;-60
2024/04/02 09:03:39;;;;;;;0.60;0.10;;;12.40;99.90;;;;;;5118846;27;20460;-60
2024/04/02 09:06:07;;;;;;;0.67;0.10;;;12.30;99.90;;;;;;5122247;27;20561;-60
2024/04/02 09:08:42;;;;;;;0.30;0.10;;;12.10;99.90;;;;;;5117737;27;20464;-61
2024/04/02 09:11:11;;;;;;;0.30;0.10;;;12.10;99.90;;;;;;5110325;27;20448;-64
2024/04/02 09:13:37;;;;;;;0.30;0.10;;;12.10;99.90;;;;;;5095366;28;20945;-60
2024/04/02 09:16:04;;;;;;;0.30;0.10;;;12.40;99.90;;;;;;5098872;27;20461;-59
2024/04/02 09:18:32;;;;;;;0.43;0.20;;;12.80;99.90;;;;;;5094349;27;20456;-60
2024/04/02 09:21:00;;;;;;;0.60;0.10;;;12.80;99.90;;;;;;5102483;27;20526;-59
2024/04/02 09:23:26;;;;;;;0.57;0.10;;;12.70;99.90;;;;;;5108558;27;20622;-58
2024/04/02 09:25:54;;;;;;;0.30;0.10;;;12.90;99.90;;;;;;5101855;27;20541;-58
2024/04/02 09:28:21;;;;;;;0.30;0.20;;;13.10;99.90;;;;;;5095153;28;20472;-59
2024/04/02 09:30:48;;;;;;;0.30;0.10;;;13.00;99.90;;;;;;5097382;28;20452;-59
2024/04/02 09:33:16;;;;;;;0.40;0.10;;;12.80;99.90;;;;;;5096372;27;21129;-61
2024/04/02 09:36:05;;;;;;;0.20;0.10;;;12.90;99.90;;;;;;5106102;28;20558;-60
2024/04/02 09:38:32;;;;;;;0.20;0.10;;;12.90;99.90;;;;;;5083340;27;20454;-59
2024/04/02 09:41:01;;;;;;;0.43;0.20;;;12.80;99.90;;;;;;5097230;27;20588;-62
2024/04/02 09:43:30;;;;;;;0.40;0.20;;;12.70;99.90;;;;;;5096762;28;20469;-61
2024/04/02 09:45:59;;;;;;;0.40;0.20;;;12.70;99.90;;;;;;5099429;28;20460;-61
2024/04/02 09:48:29;;;;;;;1.03;0.10;;;12.60;99.90;;;;;;5110567;28;20552;-61
2024/04/02 09:50:57;;;;;;;0.30;0.10;;;12.70;99.90;;;;;;5097789;28;20651;-62
2024/04/02 09:53:24;;;;;;;2.10;0.20;;;12.80;99.90;;;;;;5097684;28;20460;-61
2024/04/02 09:55:53;;;;;;;0.30;0.10;;;13.00;99.90;;;;;;5103709;28;20570;-60
2024/04/02 09:58:19;;;;;;;0.30;0.10;;;13.30;99.90;;;;;;5100752;28;20576;-62
2024/04/02 10:00:51;;;;;;;1.77;0.10;;;13.20;99.90;;;;;;5101620;28;21074;-63
2024/04/02 10:03:20;;;;;;;0.50;0.20;;;13.30;99.90;;;;;;5098352;28;20562;-61
2024/04/02 10:05:47;;;;;;;0.30;0.10;;;13.40;99.90;;;;;;5109669;28;20583;-62
2024/04/02 10:08:14;;;;;;;0.30;0.10;;;13.50;99.90;;;;;;5115482;28;20455;-63
2024/04/02 10:10:42;;;;;;;0.30;0.10;;;13.70;99.90;;;;;;5118897;27;20508;-63
2024/04/02 10:13:08;;;;;;;0.40;0.13;;;14.20;99.90;;;;;;5111568;27;20467;-65
2024/04/02 10:15:35;;;;;;;0.30;0.10;;;14.70;99.90;;;;;;5109013;27;20468;-66
2024/04/02 10:18:03;;;;;;;0.33;0.10;;;14.90;99.90;;;;;;5115453;27;20485;-64
2024/04/02 10:20:31;;;;;;;1.47;0.20;;;15.40;99.90;;;;;;5117092;27;20555;-65
2024/04/02 10:22:58;;;;;;;0.63;0.20;;;15.30;99.90;;;;;;5115463;27;20753;-61
2024/04/02 10:25:26;;;;;;;2.30;0.20;;;15.40;99.90;;;;;;5113522;27;20444;-62
2024/04/02 10:27:57;;;;;;;0.50;0.20;;;15.40;99.90;;;;;;5116742;27;20455;-62
2024/04/02 10:30:25;;;;;;;0.67;0.10;;;15.10;99.90;;;;;;5110991;27;20464;-62
2024/04/02 10:32:53;;;;;;;0.33;0.10;;;15.00;99.90;;;;;;5112138;27;20543;-64
2024/04/02 10:35:23;;;;;;;3.83;0.20;;;14.50;99.90;;;;;;5109676;27;20614;-65
2024/04/02 10:37:50;;;;;;;0.40;0.10;;;14.40;99.90;;;;;;5108201;27;20472;-65
2024/04/02 10:40:17;;;;;;;0.60;0.10;;;14.00;99.90;;;;;;5107285;27;20587;-65
2024/04/02 10:42:47;;;;;;;0.60;0.20;;;13.90;99.90;;;;;;5115237;28;20451;-64
2024/04/02 10:45:14;;;;;;;0.30;0.10;;;13.60;99.90;;;;;;5115625;28;20541;-64
2024/04/02 10:47:47;;;;;;;0.53;0.10;;;13.80;99.90;;;;;;5121524;28;20464;-65
2024/04/02 10:50:14;;;;;;;0.60;0.17;;;13.70;99.90;;;;;;5123413;28;20456;-65
2024/04/02 10:52:42;;;;;;;0.20;0.10;;;13.40;99.90;;;;;;5114322;28;20519;-65
2024/04/02 10:55:09;;;;;;;2.43;0.10;;;13.50;99.90;;;;;;5114749;28;20487;-65
2024/04/02 10:57:36;;;;;;;0.40;0.10;;;13.60;99.90;;;;;;5111229;28;20456;-65
2024/04/02 11:00:06;;;;;;;2.60;0.20;;;13.70;99.90;;;;;;5117283;28;20752;-65
2024/04/02 11:02:34;;;;;;;2.40;0.30;;;13.90;99.90;;;;;;5110909;28;20487;-64
2024/04/02 11:05:01;;;;;;;0.77;0.30;;;14.00;99.90;;;;;;5109099;28;20798;-64
2024/04/02 11:07:27;;;;;;;0.93;0.10;;;14.20;99.90;;;;;;5110166;28;20818;-64
2024/04/02 11:09:56;;;;;;;0.70;0.10;;;14.60;99.90;;;;;;5107688;28;20544;-64
2024/04/02 11:12:23;;;;;;;0.30;0.10;;;14.60;99.90;;;;;;5105607;28;20448;-64
2024/04/02 11:14:50;;;;;;;0.40;0.20;;;14.80;99.90;;;;;;5107857;28;20571;-65
2024/04/02 11:17:17;;;;;;;0.40;0.13;;;14.80;99.90;;;;;;5112460;28;20745;-65
2024/04/02 11:19:45;;;;;;;0.60;0.10;;;14.40;99.90;;;;;;5106988;28;20451;-64
2024/04/02 11:25:08;;;;;;;0.90;0.20;;;13.80;99.90;;;;;;5107813;28;20467;-65
2024/04/02 11:27:35;;;;;;;4.73;0.17;;;14.20;99.90;;;;;;5115266;28;20457;-61
2024/04/02 11:30:02;;;;;;;0.30;0.10;;;14.40;99.90;;;;;;5120583;28;20463;-63
2024/04/02 11:32:29;;;;;;;0.20;0.10;;;14.50;99.90;;;;;;5112819;28;20753;-63
2024/04/02 11:34:59;;;;;;;0.73;0.10;;;14.60;99.90;;;;;;5115603;28;20488;-63
2024/04/02 11:37:26;;;;;;;0.30;0.10;;;14.80;99.90;;;;;;5118933;27;20440;-64
2024/04/02 11:39:54;;;;;;;0.30;0.10;;;14.70;99.90;;;;;;5121819;27;20554;-63
2024/04/02 11:42:23;;;;;;;0.40;0.10;;;14.90;99.90;;;;;;5139333;27;20447;-62
2024/04/02 11:44:51;;;;;;;0.97;0.10;;;15.00;99.90;;;;;;5117931;27;20470;-63
2024/04/02 11:47:18;;;;;;;1.30;0.20;;;14.80;99.90;;;;;;5118666;28;20456;-62
2024/04/02 11:49:45;;;;;;;0.93;0.10;;;14.90;99.90;;;;;;5115966;28;20476;-62
2024/04/02 11:52:12;;;;;;;0.33;0.10;;;15.30;99.90;;;;;;5115941;28;20440;-63
2024/04/02 11:54:39;;;;;;;0.20;0.10;;;15.60;99.90;;;;;;5118782;28;20479;-62
2024/04/02 12:00:12;;;;;;;0.50;0.10;;;15.40;99.90;;;;;;5126233;27;20537;-61
2024/04/02 12:02:40;;;;;;;0.30;0.10;;;15.40;99.90;;;;;;5119740;27;20460;-61
2024/04/02 12:05:07;;;;;;;0.40;0.10;;;15.40;99.90;;;;;;5123284;27;20533;-55
2024/04/02 12:07:35;;;;;;;0.30;0.10;;;15.10;99.90;;;;;;5138252;27;20726;-59
2024/04/02 12:10:04;;;;;;;1.50;0.27;;;15.20;99.90;;;;;;5136940;27;20852;-57
2024/04/02 12:12:31;;;;;;;0.30;0.10;;;15.30;99.90;;;;;;5128048;27;20443;-59
2024/04/02 12:15:00;;;;;;;0.53;0.10;;;15.40;99.90;;;;;;5118033;28;20615;-60
2024/04/02 12:17:26;;;;;;;0.30;0.10;;;16.00;99.90;;;;;;5119300;28;20459;-58
2024/04/02 12:19:55;;;;;;;0.30;0.10;;;15.60;99.90;;;;;;5120435;28;20506;-57
2024/04/02 12:22:22;;;;;;;0.30;0.10;;;15.60;99.90;;;;;;5118805;28;20793;-58
2024/04/02 12:24:49;;;;;;;0.30;0.10;;;15.50;99.90;;;;;;5117092;28;20444;-59
2024/04/02 12:27:16;;;;;;;0.40;0.10;;;15.90;99.90;;;;;;5116245;27;20443;-59
2024/04/02 12:29:43;;;;;;;0.30;0.10;;;16.40;99.90;;;;;;5124463;27;20899;-63
2024/04/02 12:32:12;;;;;;;0.30;0.10;;;15.60;99.90;;;;;;5128569;27;20449;-61
2024/04/02 12:34:39;;;;;;;0.30;0.10;;;15.60;99.90;;;;;;5123198;27;20963;-62
2024/04/02 12:37:06;;;;;;;0.30;0.10;;;15.60;99.90;;;;;;5128917;27;20433;-62
2024/04/02 12:39:34;;;;;;;0.73;0.10;;;15.20;99.90;;;;;;5129900;27;20428;-61
2024/04/02 12:42:01;;;;;;;0.30;0.10;;;15.00;99.90;;;;;;5116843;28;20461;-60
2024/04/02 12:44:30;;;;;;;1.10;0.20;;;14.60;99.90;;;;;;5117421;28;20839;-62
2024/04/02 12:46:58;;;;;;;0.30;0.10;;;14.40;99.90;;;;;;5125261;27;20460;-62
2024/04/02 12:49:25;;;;;;;0.30;0.10;;;14.40;99.90;;;;;;5119460;27;20474;-62
2024/04/02 12:51:53;;;;;;;2.40;0.23;;;14.50;99.90;;;;;;5129126;27;20441;-62
2024/04/02 12:54:20;;;;;;;0.30;0.10;;;14.60;99.90;;;;;;5132282;27;20462;-61
2024/04/02 12:56:47;;;;;;;0.30;0.10;;;14.50;99.90;;;;;;5112532;27;20522;-62
2024/04/02 12:59:13;;;;;;;0.40;0.10;;;14.90;99.90;;;;;;5111808;27;20480;-63
2024/04/02 13:01:40;;;;;;;1.30;0.20;;;15.40;99.90;;;;;;5126635;27;20451;-63
2024/04/02 13:04:06;;;;;;;0.30;0.10;;;15.20;99.90;;;;;;5129722;27;20433;-62